| time (UTC) | temp F | wind direction | speed MPH | gust MPH | rain 1hr in | rain 24hr in | rain mn in | humidity % | barometer mb |
| 20260507040216 | 44 | 268 | 11.0 | 0.0 | 0.00 | 0.00 | 0.00 | 97 | 1011.7 |
| 20260507033211 | 44 | 241 | 14.0 | 0.0 | 0.00 | 0.00 | 0.00 | 96 | 1011.5 |
| 20260507030211 | 44 | 220 | 11.0 | 0.0 | 0.00 | 0.00 | 0.00 | 96 | 1011.5 |
| 20260507023211 | 44 | 215 | 11.0 | 0.0 | 0.00 | 0.00 | 0.00 | 96 | 1011.2 |
| 20260507020211 | 44 | 240 | 13.0 | 0.0 | 0.00 | 0.00 | 0.00 | 96 | 1011.0 |
| 20260507013212 | 43 | 236 | 8.0 | 0.0 | 0.00 | 0.00 | 0.00 | 96 | 1011.2 |
| 20260507010211 | 42 | 211 | 7.0 | 0.0 | 0.00 | 0.00 | 0.00 | 95 | 1011.0 |
| 20260507003209 | 42 | 214 | 6.0 | 0.0 | 0.00 | 0.00 | 0.00 | 95 | 1010.8 |
| 20260507000209 | 43 | 227 | 9.0 | 0.0 | 0.00 | 0.00 | 0.00 | 94 | 1010.7 |
| 20260506233209 | 44 | 247 | 12.0 | 0.0 | 0.00 | 0.00 | 0.00 | 95 | 1010.5 |
| 20260506230209 | 44 | 236 | 11.0 | 0.0 | 0.00 | 0.00 | 0.00 | 95 | 1010.5 |
| 20260506223209 | 44 | 234 | 10.0 | 0.0 | 0.00 | 0.00 | 0.00 | 95 | 1010.4 |
| 20260506220209 | 45 | 253 | 11.0 | 0.0 | 0.00 | 0.00 | 0.00 | 95 | 1010.1 |
| 20260506213209 | 45 | 221 | 6.0 | 0.0 | 0.00 | 0.00 | 0.29 | 95 | 1010.3 |
| 20260506210210 | 45 | 240 | 13.0 | 0.0 | 0.00 | 0.00 | 0.29 | 94 | 1010.2 |
| 20260506203210 | 46 | 244 | 15.0 | 0.0 | 0.00 | 0.00 | 0.29 | 94 | 1009.8 |
| 20260506200210 | 47 | 225 | 12.0 | 0.0 | 0.00 | 0.00 | 0.29 | 94 | 1010.0 |
| 20260506193215 | 46 | 223 | 15.0 | 0.0 | 0.00 | 0.00 | 0.29 | 93 | 1009.7 |
| 20260506190211 | 47 | 217 | 15.0 | 0.0 | 0.00 | 0.00 | 0.29 | 92 | 1009.2 |
| 20260506183209 | 47 | 221 | 15.0 | 0.0 | 0.00 | 0.00 | 0.29 | 90 | 1008.9 |
| 20260506180216 | 47 | 262 | 15.0 | 0.0 | 0.00 | 0.00 | 0.29 | 90 | 1008.7 |
| 20260506173210 | 48 | 244 | 20.0 | 0.0 | 0.00 | 0.00 | 0.29 | 90 | 1008.2 |
| 20260506170215 | 50 | 221 | 12.0 | 0.0 | 0.00 | 0.00 | 0.29 | 93 | 1007.7 |
| 20260506163210 | 49 | 240 | 15.0 | 0.0 | 0.00 | 0.00 | 0.29 | 94 | 1007.8 |
| 20260506160210 | 48 | 248 | 16.0 | 0.0 | 0.00 | 0.00 | 0.29 | 94 | 1007.7 |
| 20260506153210 | 48 | 240 | 12.0 | 0.0 | 0.00 | 0.00 | 0.28 | 94 | 1007.8 |
| 20260506150210 | 48 | 248 | 17.0 | 0.0 | 0.00 | 0.00 | 0.23 | 93 | 1007.6 |
| 20260506143210 | 49 | 232 | 28.0 | 0.0 | 0.00 | 0.00 | 0.17 | 92 | 1007.1 |
| 20260506140210 | 52 | 238 | 22.0 | 0.0 | 0.00 | 0.00 | 0.09 | 88 | 1006.0 |
| 20260506133211 | 56 | 228 | 15.0 | 0.0 | 0.00 | 0.00 | 0.01 | 80 | 1005.7 |
| 20260506130211 | 58 | 214 | 11.0 | 0.0 | 0.00 | 0.00 | 0.01 | 73 | 1005.5 |
| 20260506123210 | 60 | 227 | 10.0 | 0.0 | 0.00 | 0.00 | 0.01 | 71 | 1005.5 |
| 20260506120210 | 60 | 227 | 8.0 | 0.0 | 0.00 | 0.00 | 0.01 | 69 | 1005.3 |
| 20260506113217 | 60 | 246 | 8.0 | 0.0 | 0.00 | 0.00 | 0.01 | 73 | 1005.4 |
| 20260506110210 | 58 | 211 | 6.0 | 0.0 | 0.00 | 0.00 | 0.01 | 77 | 1005.7 |
| 20260506100213 | 58 | 206 | 5.0 | 0.0 | 0.00 | 0.00 | 0.01 | 79 | 1005.8 |
| 20260506093211 | 58 | 159 | 6.0 | 0.0 | 0.00 | 0.00 | 0.01 | 78 | 1006.0 |
| 20260506090211 | 57 | 157 | 5.0 | 0.0 | 0.00 | 0.00 | 0.01 | 82 | 1005.9 |
| 20260506083211 | 55 | 214 | 5.0 | 0.0 | 0.00 | 0.00 | 0.01 | 93 | 1005.9 |
| 20260506080212 | 53 | 188 | 2.0 | 0.0 | 0.00 | 0.00 | 0.01 | 96 | 1005.8 |
| 20260506073211 | 52 | 196 | 2.0 | 0.0 | 0.00 | 0.00 | 0.01 | 97 | 1005.9 |
| 20260506070212 | 50 | 254 | 2.0 | 0.0 | 0.00 | 0.00 | 0.01 | 97 | 1006.1 |
| 20260506060210 | 46 | 323 | 3.0 | 0.0 | 0.00 | 0.00 | 0.01 | 96 | 1005.8 |
| 20260506050211 | 45 | 326 | 2.0 | 0.0 | 0.00 | 0.00 | 0.01 | 96 | 1006.1 |
| 20260506043211 | 45 | 326 | 4.0 | 0.0 | 0.00 | 0.00 | 0.01 | 96 | 1006.5 |